Time;durP1;ratioP1;P1;durP2;ratioP2;P2;SDS_P1;SDS_P2;PMS_P1;PMS_P2;Temp;Humidity;BMP_temperature;BMP_pressure;BME280_temperature;BME280_humidity;BME280_pressure;Samples;Min_cycle;Max_cycle;Signal;HPM_P1;HPM_P2
2023/04/30 00:01:41;;;;;;;;;;;7.40;99.90;;;;;;5072362;28;20343;-77
2023/04/30 00:04:06;;;;;;;;;;;7.20;99.90;;;;;;5069156;28;19924;-77
2023/04/30 00:06:32;;;;;;;;;;;7.30;99.90;;;;;;5075925;28;20284;-77
2023/04/30 00:08:57;;;;;;;;;;;7.30;99.90;;;;;;5079068;28;19970;-77
2023/04/30 00:11:24;;;;;;;;;;;7.10;99.90;;;;;;5069041;28;20010;-77
2023/04/30 00:13:50;;;;;;;;;;;7.30;99.90;;;;;;5069114;28;19981;-77
2023/04/30 00:16:16;;;;;;;;;;;7.10;99.90;;;;;;5061072;28;20386;-77
2023/04/30 00:18:42;;;;;;;;;;;7.10;99.90;;;;;;5055026;28;19931;-77
2023/04/30 00:21:08;;;;;;;;;;;6.90;99.90;;;;;;5058805;28;20522;-77
2023/04/30 00:23:33;;;;;;;;;;;7.00;99.90;;;;;;5047145;28;19954;-77
2023/04/30 00:25:59;;;;;;;;;;;7.00;99.90;;;;;;5062191;28;20023;-77
2023/04/30 00:28:24;;;;;;;;;;;7.00;99.90;;;;;;5065308;28;19939;-77
2023/04/30 00:30:50;;;;;;;;;;;7.10;99.90;;;;;;5059486;28;19924;-77
2023/04/30 00:33:16;;;;;;;;;;;7.00;99.90;;;;;;5055662;28;19935;-77
2023/04/30 00:35:41;;;;;;;;;;;6.90;99.90;;;;;;5060979;28;19928;-77
2023/04/30 00:38:07;;;;;;;;;;;6.80;99.90;;;;;;5055868;28;19986;-77
2023/04/30 00:40:33;;;;;;;;;;;6.70;99.90;;;;;;5058975;28;20019;-77
2023/04/30 00:42:59;;;;;;;;;;;6.80;99.90;;;;;;5062369;28;20045;-77
2023/04/30 00:45:24;;;;;;;;;;;6.60;99.90;;;;;;5075023;28;20014;-77
2023/04/30 00:47:50;;;;;;;;;;;6.60;99.90;;;;;;5067806;28;19936;-77
2023/04/30 00:50:16;;;;;;;;;;;6.70;99.90;;;;;;5070232;28;19932;-77
2023/04/30 00:52:41;;;;;;;;;;;6.50;99.90;;;;;;5068425;28;20431;-77
2023/04/30 00:55:08;;;;;;;;;;;6.50;99.90;;;;;;5068859;28;20414;-77
2023/04/30 00:57:35;;;;;;;;;;;6.50;99.90;;;;;;5071138;28;19932;-77
2023/04/30 01:00:00;;;;;;;;;;;6.40;99.90;;;;;;5062661;28;19932;-77
2023/04/30 01:02:26;;;;;;;;;;;6.40;99.90;;;;;;5062479;28;20498;-77
2023/04/30 01:04:52;;;;;;;;;;;6.30;99.90;;;;;;5068530;28;19928;-77
2023/04/30 01:07:18;;;;;;;;;;;6.50;99.90;;;;;;5070276;28;20019;-77
2023/04/30 01:09:44;;;;;;;;;;;6.40;99.90;;;;;;5068717;28;20023;-76
2023/04/30 01:12:17;;;;;;;;;;;6.40;99.90;;;;;;5066984;28;20023;-76
2023/04/30 01:15:00;;;;;;;;;;;6.30;99.90;;;;;;5069113;28;19974;-77
2023/04/30 01:17:35;;;;;;;;;;;6.10;99.90;;;;;;5069776;28;19928;-77
2023/04/30 01:20:01;;;;;;;;;;;6.20;99.90;;;;;;5068552;28;20072;-77
2023/04/30 01:22:27;;;;;;;;;;;6.10;99.90;;;;;;5070767;28;19950;-77
2023/04/30 01:25:11;;;;;;;;;;;6.20;99.90;;;;;;5068733;28;20364;-77
2023/04/30 01:27:56;;;;;;;;;;;6.20;99.90;;;;;;5060189;28;20060;-77
2023/04/30 01:30:22;;;;;;;;;;;6.40;99.90;;;;;;5073659;28;19955;-77
2023/04/30 01:32:48;;;;;;;;;;;6.30;99.90;;;;;;5067282;28;19935;-77
2023/04/30 01:35:13;;;;;;;;;;;6.10;99.90;;;;;;5065492;28;19932;-77
2023/04/30 01:37:59;;;;;;;;;;;6.10;99.90;;;;;;5067389;28;19932;-77
2023/04/30 01:40:30;;;;;;;;;;;6.10;99.90;;;;;;5066084;28;19928;-77
2023/04/30 01:43:18;;;;;;;;;;;5.90;99.90;;;;;;5070744;28;20683;-77
2023/04/30 01:45:55;;;;;;;;;;;5.90;99.90;;;;;;5069525;28;20010;-77
2023/04/30 01:48:35;;;;;;;;;;;5.80;99.90;;;;;;5072036;28;19933;-77
2023/04/30 01:51:07;;;;;;;;;;;5.90;99.90;;;;;;5069761;28;19933;-77
2023/04/30 01:53:38;;;;;;;;;;;6.00;99.90;;;;;;5069599;28;19924;-77
2023/04/30 01:56:05;;;;;;;;;;;5.80;99.90;;;;;;5070644;28;20011;-77
2023/04/30 01:58:31;;;;;;;;;;;5.90;99.90;;;;;;5068291;28;20023;-77
2023/04/30 02:00:56;;;;;;;;;;;5.70;99.90;;;;;;5048515;28;20024;-77
2023/04/30 02:03:22;;;;;;;;;;;5.70;99.90;;;;;;5038200;28;19932;-77
2023/04/30 02:05:48;;;;;;;;;;;6.00;99.90;;;;;;5067499;28;19935;-77
2023/04/30 02:08:14;;;;;;;;;;;5.90;99.90;;;;;;5070310;28;19972;-77
2023/04/30 02:10:39;;;;;;;;;;;5.70;99.90;;;;;;5064337;28;20391;-77
2023/04/30 02:13:05;;;;;;;;;;;5.80;99.90;;;;;;5071296;28;19935;-77
2023/04/30 02:15:30;;;;;;;;;;;5.80;99.90;;;;;;5067758;28;20007;-77
2023/04/30 02:17:56;;;;;;;;;;;5.70;99.90;;;;;;5068620;28;20385;-77
2023/04/30 02:20:21;;;;;;;;;;;5.60;99.90;;;;;;5069805;28;20393;-77
2023/04/30 02:22:47;;;;;;;;;;;5.50;99.90;;;;;;5067976;28;20442;-77
2023/04/30 02:25:13;;;;;;;;;;;5.60;99.90;;;;;;5067688;28;19930;-77
2023/04/30 02:27:38;;;;;;;;;;;5.40;99.90;;;;;;5072949;28;19931;-77
2023/04/30 02:30:05;;;;;;;;;;;5.40;99.90;;;;;;5066046;28;19971;-77
2023/04/30 02:32:30;;;;;;;;;;;5.50;99.90;;;;;;5072517;28;19928;-76
2023/04/30 02:34:56;;;;;;;;;;;5.30;99.90;;;;;;5066284;28;19928;-77
2023/04/30 02:37:22;;;;;;;;;;;5.20;99.90;;;;;;5071673;28;19939;-77
2023/04/30 02:39:47;;;;;;;;;;;5.20;99.90;;;;;;5070840;28;20339;-77
2023/04/30 02:42:13;;;;;;;;;;;5.20;99.90;;;;;;5067169;28;19928;-77
2023/04/30 02:44:39;;;;;;;;;;;5.20;99.90;;;;;;5071972;28;20445;-77
2023/04/30 02:47:04;;;;;;;;;;;5.20;99.90;;;;;;5070162;28;19987;-77
2023/04/30 02:49:30;;;;;;;;;;;5.20;99.90;;;;;;5074250;28;19928;-76
2023/04/30 02:51:56;;;;;;;;;;;5.10;99.90;;;;;;5066634;28;19957;-77
2023/04/30 02:54:21;;;;;;;;;;;5.10;99.90;;;;;;5075118;28;19955;-77
2023/04/30 02:56:47;;;;;;;;;;;5.20;99.90;;;;;;5062953;28;20115;-77
2023/04/30 02:59:12;;;;;;;;;;;5.00;99.90;;;;;;5070365;28;20007;-77
2023/04/30 03:01:38;;;;;;;;;;;5.20;99.90;;;;;;5065768;28;20031;-77
2023/04/30 03:04:04;;;;;;;;;;;5.20;99.90;;;;;;5071169;28;20073;-77
2023/04/30 03:06:30;;;;;;;;;;;5.20;99.90;;;;;;5067871;28;19935;-77
2023/04/30 03:08:55;;;;;;;;;;;5.10;99.90;;;;;;5052369;28;19931;-77
2023/04/30 03:11:21;;;;;;;;;;;5.10;99.90;;;;;;5063981;28;19932;-77
2023/04/30 03:13:50;;;;;;;;;;;5.10;99.90;;;;;;5067251;28;19928;-77
2023/04/30 03:16:16;;;;;;;;;;;4.90;99.90;;;;;;5063082;28;20406;-77
2023/04/30 03:18:41;;;;;;;;;;;5.00;99.90;;;;;;5071545;28;19943;-77
2023/04/30 03:21:08;;;;;;;;;;;5.00;99.90;;;;;;5054161;28;19928;-77
2023/04/30 03:23:34;;;;;;;;;;;5.00;99.90;;;;;;5069969;28;19925;-77
2023/04/30 03:25:59;;;;;;;;;;;4.80;99.90;;;;;;5066344;28;19943;-76
2023/04/30 03:28:25;;;;;;;;;;;5.00;99.90;;;;;;5071297;28;19928;-77
2023/04/30 03:30:51;;;;;;;;;;;5.10;99.90;;;;;;5062384;28;19932;-77
2023/04/30 03:33:17;;;;;;;;;;;4.90;99.90;;;;;;5066924;28;20670;-77
2023/04/30 03:35:42;;;;;;;;;;;4.90;99.90;;;;;;5068484;28;20027;-77
2023/04/30 03:38:08;;;;;;;;;;;4.80;99.90;;;;;;5068404;28;19932;-77
2023/04/30 03:40:33;;;;;;;;;;;4.90;99.90;;;;;;5073384;28;19943;-77
2023/04/30 03:42:59;;;;;;;;;;;4.90;99.90;;;;;;5070006;28;19954;-77
2023/04/30 03:45:25;;;;;;;;;;;5.00;99.90;;;;;;5073952;28;19986;-77
2023/04/30 03:47:51;;;;;;;;;;;4.90;99.90;;;;;;5075738;28;19924;-77
2023/04/30 03:50:17;;;;;;;;;;;4.80;99.90;;;;;;5073250;28;19931;-76
2023/04/30 03:52:43;;;;;;;;;;;5.00;99.90;;;;;;5072920;28;19952;-77
2023/04/30 03:55:09;;;;;;;;;;;5.00;99.90;;;;;;5071924;28;20374;-77
2023/04/30 03:57:35;;;;;;;;;;;5.00;99.90;;;;;;5071832;28;20130;-77
2023/04/30 04:00:00;;;;;;;;;;;5.10;99.90;;;;;;5071312;28;19924;-77
2023/04/30 04:02:26;;;;;;;;;;;5.10;99.90;;;;;;5069181;28;19932;-77
2023/04/30 04:04:52;;;;;;;;;;;5.10;99.90;;;;;;5068868;28;19973;-77
2023/04/30 04:07:17;;;;;;;;;;;5.20;99.90;;;;;;5071673;28;20155;-77
2023/04/30 04:09:43;;;;;;;;;;;5.10;99.90;;;;;;5072573;28;19924;-78
2023/04/30 04:12:09;;;;;;;;;;;5.00;99.90;;;;;;5072438;28;19931;-77
2023/04/30 04:14:34;;;;;;;;;;;5.00;99.90;;;;;;5075203;28;19928;-79
2023/04/30 04:17:00;;;;;;;;;;;5.00;99.90;;;;;;5078492;28;19931;-77
2023/04/30 04:19:26;;;;;;;;;;;5.10;99.90;;;;;;5068317;28;19982;-77
2023/04/30 04:21:51;;;;;;;;;;;5.10;99.90;;;;;;5078727;28;20397;-77
2023/04/30 04:24:17;;;;;;;;;;;5.10;99.90;;;;;;5075508;28;19929;-77
2023/04/30 04:26:43;;;;;;;;;;;4.90;99.90;;;;;;5077814;28;20214;-77
2023/04/30 04:29:08;;;;;;;;;;;5.00;99.90;;;;;;5074586;28;19932;-77
2023/04/30 04:31:34;;;;;;;;;;;5.00;99.90;;;;;;5068864;28;19928;-76
2023/04/30 04:34:01;;;;;;;;;;;5.10;99.90;;;;;;5072488;28;19928;-77
2023/04/30 04:36:27;;;;;;;;;;;5.10;99.90;;;;;;5073534;28;19935;-77
2023/04/30 04:38:53;;;;;;;;;;;5.00;99.90;;;;;;5075078;28;19928;-77
2023/04/30 04:41:19;;;;;;;;;;;5.20;99.90;;;;;;5074185;28;19981;-77
2023/04/30 04:43:45;;;;;;;;;;;5.30;99.90;;;;;;5073588;28;19936;-77
2023/04/30 04:46:10;;;;;;;;;;;5.50;99.90;;;;;;5074315;28;19935;-77
2023/04/30 04:48:36;;;;;;;;;;;5.60;99.90;;;;;;5078125;28;19930;-77
2023/04/30 04:51:02;;;;;;;;;;;5.80;99.90;;;;;;5074489;28;21224;-77
2023/04/30 04:53:27;;;;;;;;;;;6.00;99.90;;;;;;5072827;28;19925;-77
2023/04/30 04:55:53;;;;;;;;;;;6.10;99.90;;;;;;5073636;28;19962;-77
2023/04/30 04:58:18;;;;;;;;;;;6.20;99.90;;;;;;5075567;28;20240;-77
2023/04/30 05:00:44;;;;;;;;;;;7.10;99.90;;;;;;5073361;28;19944;-77
2023/04/30 05:03:10;;;;;;;;;;;8.40;99.90;;;;;;5076569;28;19990;-77
2023/04/30 05:05:35;;;;;;;;;;;9.30;99.90;;;;;;5074822;28;19924;-77
2023/04/30 05:08:01;;;;;;;;;;;9.50;99.90;;;;;;5055813;28;20306;-77
2023/04/30 05:10:26;;;;;;;;;;;10.00;99.90;;;;;;5079552;28;19997;-77
2023/04/30 05:12:52;;;;;;;;;;;9.80;99.90;;;;;;5052958;28;19932;-77
2023/04/30 05:15:17;;;;;;;;;;;9.20;99.90;;;;;;5076387;28;19952;-77
2023/04/30 05:17:43;;;;;;;;;;;9.00;99.90;;;;;;5078103;28;20095;-77
2023/04/30 05:20:10;;;;;;;;;;;8.70;99.90;;;;;;5071610;28;19928;-77
2023/04/30 05:22:35;;;;;;;;;;;8.70;99.90;;;;;;5076702;28;19928;-78
2023/04/30 05:25:01;;;;;;;;;;;8.20;99.90;;;;;;5077803;28;20378;-77
2023/04/30 05:27:26;;;;;;;;;;;9.60;99.90;;;;;;5077143;28;20420;-77
2023/04/30 05:29:52;;;;;;;;;;;11.00;99.90;;;;;;5073274;28;19928;-77
2023/04/30 05:32:17;;;;;;;;;;;10.70;99.90;;;;;;5069714;28;19975;-77
2023/04/30 05:34:43;;;;;;;;;;;9.20;99.90;;;;;;5075857;28;20048;-78
2023/04/30 05:37:08;;;;;;;;;;;8.80;99.90;;;;;;5068051;28;19978;-77
2023/04/30 05:39:34;;;;;;;;;;;9.50;99.90;;;;;;5071447;28;19982;-77
2023/04/30 05:42:01;;;;;;;;;;;9.20;99.90;;;;;;5071606;28;19939;-77
2023/04/30 05:44:29;;;;;;;;;;;8.90;99.90;;;;;;5070197;28;19932;-78
2023/04/30 05:46:55;;;;;;;;;;;8.40;99.90;;;;;;5075020;28;19924;-77
2023/04/30 05:49:20;;;;;;;;;;;8.10;99.90;;;;;;5074788;28;19928;-77
2023/04/30 05:51:46;;;;;;;;;;;7.90;99.90;;;;;;5076572;28;19924;-77
2023/04/30 05:54:11;;;;;;;;;;;7.80;99.90;;;;;;5061866;28;19935;-77
2023/04/30 05:56:37;;;;;;;;;;;7.80;99.90;;;;;;5053645;28;19924;-78
2023/04/30 05:59:02;;;;;;;;;;;8.20;99.90;;;;;;5074512;28;19928;-77
2023/04/30 06:01:28;;;;;;;;;;;8.90;99.90;;;;;;5072985;28;19936;-77
2023/04/30 06:03:53;;;;;;;;;;;8.90;99.90;;;;;;5052754;28;19977;-78
2023/04/30 06:06:19;;;;;;;;;;;9.10;99.90;;;;;;5069296;28;19928;-77
2023/04/30 06:08:45;;;;;;;;;;;9.20;99.90;;;;;;5072726;28;20065;-77
2023/04/30 06:11:11;;;;;;;;;;;9.60;99.90;;;;;;5064034;28;20031;-77
2023/04/30 06:13:37;;;;;;;;;;;9.50;99.90;;;;;;5066075;28;19924;-78
2023/04/30 06:16:02;;;;;;;;;;;9.30;99.90;;;;;;5073295;28;19932;-78
2023/04/30 06:18:28;;;;;;;;;;;9.60;99.90;;;;;;5074543;28;19928;-77
2023/04/30 06:20:53;;;;;;;;;;;9.40;99.90;;;;;;5075967;28;19932;-77
2023/04/30 06:23:19;;;;;;;;;;;9.90;99.90;;;;;;5076303;28;20345;-78
2023/04/30 06:25:45;;;;;;;;;;;10.00;99.90;;;;;;5074080;28;20487;-77
2023/04/30 06:28:10;;;;;;;;;;;9.30;99.90;;;;;;5069737;28;19996;-78
2023/04/30 06:30:36;;;;;;;;;;;9.20;99.90;;;;;;5073340;28;19924;-78
2023/04/30 06:33:02;;;;;;;;;;;9.30;99.90;;;;;;5073210;28;19928;-77
2023/04/30 06:35:27;;;;;;;;;;;9.70;99.90;;;;;;5076744;28;19927;-78
2023/04/30 06:37:53;;;;;;;;;;;10.10;99.90;;;;;;5076677;28;20022;-78
2023/04/30 06:40:19;;;;;;;;;;;9.90;99.90;;;;;;5072970;28;19928;-78
2023/04/30 06:42:45;;;;;;;;;;;9.30;99.90;;;;;;5075309;28;20350;-77
2023/04/30 06:45:11;;;;;;;;;;;9.50;99.90;;;;;;5071768;28;19932;-77
2023/04/30 06:47:37;;;;;;;;;;;10.20;99.90;;;;;;5072785;28;19981;-77
2023/04/30 06:50:02;;;;;;;;;;;11.10;99.90;;;;;;5070800;28;19932;-77
2023/04/30 06:52:29;;;;;;;;;;;10.60;99.90;;;;;;5071256;28;19930;-77
2023/04/30 06:54:54;;;;;;;;;;;10.10;99.90;;;;;;5076112;28;20544;-77
2023/04/30 06:57:20;;;;;;;;;;;10.00;99.90;;;;;;5071522;28;19935;-77
2023/04/30 06:59:46;;;;;;;;;;;10.60;99.90;;;;;;5073363;28;20083;-77
2023/04/30 07:02:12;;;;;;;;;;;10.70;99.90;;;;;;5069356;28;19925;-78
2023/04/30 07:04:37;;;;;;;;;;;10.80;99.90;;;;;;5068036;28;19935;-77
2023/04/30 07:07:03;;;;;;;;;;;11.10;99.90;;;;;;5075260;28;19935;-78
2023/04/30 07:09:29;;;;;;;;;;;12.00;99.90;;;;;;5075209;28;19932;-77
2023/04/30 07:11:56;;;;;;;;;;;11.50;99.90;;;;;;5075677;28;19931;-77
2023/04/30 07:14:21;;;;;;;;;;;11.50;99.90;;;;;;5076055;28;20025;-78
2023/04/30 07:16:50;;;;;;;;;;;11.40;99.90;;;;;;5078051;28;20594;-78
2023/04/30 07:19:15;;;;;;;;;;;10.50;99.90;;;;;;5078252;28;20377;-78
2023/04/30 07:21:41;;;;;;;;;;;10.50;99.90;;;;;;5077083;28;19935;-78
2023/04/30 07:24:07;;;;;;;;;;;11.30;99.90;;;;;;5076008;28;19928;-79
2023/04/30 07:26:32;;;;;;;;;;;10.60;99.90;;;;;;5078897;28;19935;-78
2023/04/30 07:28:58;;;;;;;;;;;10.40;99.90;;;;;;5079468;28;19934;-78
2023/04/30 07:31:24;;;;;;;;;;;10.70;99.90;;;;;;5080008;28;19924;-78
2023/04/30 07:33:51;;;;;;;;;;;10.70;99.90;;;;;;5062031;28;19932;-78
2023/04/30 07:36:16;;;;;;;;;;;10.90;99.90;;;;;;5076215;28;19928;-78
2023/04/30 07:38:42;;;;;;;;;;;11.60;99.90;;;;;;5079380;28;19939;-78
2023/04/30 07:41:08;;;;;;;;;;;11.20;99.90;;;;;;5080865;28;20346;-79
2023/04/30 07:43:34;;;;;;;;;;;11.60;99.90;;;;;;5078262;28;20019;-77
2023/04/30 07:46:00;;;;;;;;;;;11.60;99.90;;;;;;5077571;28;20014;-77
2023/04/30 07:48:26;;;;;;;;;;;11.20;99.90;;;;;;5078232;28;20011;-76
2023/04/30 07:50:51;;;;;;;;;;;12.50;99.90;;;;;;5073981;28;20046;-79
2023/04/30 07:53:17;;;;;;;;;;;12.80;99.90;;;;;;5054937;28;19928;-78
2023/04/30 07:55:42;;;;;;;;;;;12.50;99.90;;;;;;5040330;28;19932;-77
2023/04/30 07:58:08;;;;;;;;;;;12.70;99.90;;;;;;5046525;28;19939;-77
2023/04/30 08:00:33;;;;;;;;;;;13.00;99.90;;;;;;5078475;28;19928;-77
2023/04/30 08:02:59;;;;;;;;;;;13.70;99.90;;;;;;5065858;28;19985;-77
2023/04/30 08:05:25;;;;;;;;;;;12.30;99.90;;;;;;5061177;28;19924;-77
2023/04/30 08:07:51;;;;;;;;;;;11.90;99.90;;;;;;5061661;28;20354;-77
2023/04/30 08:10:17;;;;;;;;;;;13.30;99.90;;;;;;5062236;28;19940;-77
2023/04/30 08:12:43;;;;;;;;;;;13.60;99.90;;;;;;5064059;28;20018;-76
2023/04/30 08:15:08;;;;;;;;;;;12.80;99.90;;;;;;5076073;28;19936;-77
2023/04/30 08:17:34;;;;;;;;;;;12.90;99.90;;;;;;5076847;28;19925;-77
2023/04/30 08:20:00;;;;;;;;;;;13.30;99.90;;;;;;5072272;28;19928;-77
2023/04/30 08:22:26;;;;;;;;;;;13.00;99.90;;;;;;5053580;28;19944;-77
2023/04/30 08:24:52;;;;;;;;;;;13.40;99.90;;;;;;5076868;28;19977;-77
2023/04/30 08:27:17;;;;;;;;;;;12.80;99.90;;;;;;5061726;28;20407;-77
2023/04/30 08:29:43;;;;;;;;;;;13.40;99.90;;;;;;5068818;28;20173;-77
2023/04/30 08:32:08;;;;;;;;;;;13.90;99.90;;;;;;5071780;28;20416;-77
2023/04/30 08:34:34;;;;;;;;;;;13.70;99.90;;;;;;5071300;28;19932;-77
2023/04/30 08:37:00;;;;;;;;;;;13.40;99.90;;;;;;5075276;28;19935;-77
2023/04/30 08:39:26;;;;;;;;;;;13.80;99.90;;;;;;5078051;28;19927;-77
2023/04/30 08:41:55;;;;;;;;;;;14.10;99.90;;;;;;5071862;28;19939;-77
2023/04/30 08:44:21;;;;;;;;;;;13.60;99.90;;;;;;5072231;28;19924;-77
2023/04/30 08:46:50;;;;;;;;;;;13.80;99.90;;;;;;5060146;28;20305;-77
2023/04/30 08:49:38;;;;;;;;;;;13.20;99.90;;;;;;5070499;28;19924;-77
2023/04/30 08:52:04;;;;;;;;;;;12.60;99.90;;;;;;5075156;28;19928;-78
2023/04/30 08:54:31;;;;;;;;;;;13.00;99.90;;;;;;5060712;28;19928;-77
2023/04/30 08:56:56;;;;;;;;;;;13.80;99.90;;;;;;5077128;28;20014;-77
2023/04/30 08:59:22;;;;;;;;;;;12.80;99.90;;;;;;5078314;28;20051;-77
2023/04/30 09:01:48;;;;;;;;;;;12.70;99.90;;;;;;5072446;28;19967;-77
2023/04/30 09:04:13;;;;;;;;;;;12.50;99.90;;;;;;5077948;28;19976;-76
2023/04/30 09:06:39;;;;;;;;;;;14.00;99.90;;;;;;5076037;28;19940;-76
2023/04/30 09:09:10;;;;;;;;;;;13.50;99.90;;;;;;5079650;28;19928;-77
2023/04/30 09:11:35;;;;;;;;;;;14.50;99.90;;;;;;5076597;28;19959;-77
2023/04/30 09:14:01;;;;;;;;;;;14.10;99.90;;;;;;5072289;28;20635;-77
2023/04/30 09:16:31;;;;;;;;;;;13.90;99.90;;;;;;5077651;28;20544;-76
2023/04/30 09:18:57;;;;;;;;;;;14.00;99.90;;;;;;5057608;28;19934;-78
2023/04/30 09:21:33;;;;;;;;;;;13.90;99.90;;;;;;5069822;28;20448;-77
2023/04/30 09:24:00;;;;;;;;;;;14.20;99.90;;;;;;5058233;28;19936;-77
2023/04/30 09:26:33;;;;;;;;;;;14.50;99.90;;;;;;5072312;28;19963;-78
2023/04/30 09:28:59;;;;;;;;;;;15.30;99.90;;;;;;5065922;28;19928;-78
2023/04/30 09:31:25;;;;;;;;;;;15.40;99.90;;;;;;5074088;28;19985;-78
2023/04/30 09:33:52;;;;;;;;;;;14.90;99.90;;;;;;5051811;28;19928;-78
2023/04/30 09:36:18;;;;;;;;;;;15.30;99.90;;;;;;5072192;28;19935;-78
2023/04/30 09:38:44;;;;;;;;;;;14.20;99.90;;;;;;5072053;28;20039;-77
2023/04/30 09:41:22;;;;;;;;;;;15.10;99.90;;;;;;5070034;28;19932;-77
2023/04/30 09:43:47;;;;;;;;;;;14.70;99.90;;;;;;5073165;28;19963;-78
2023/04/30 09:46:13;;;;;;;;;;;15.10;99.90;;;;;;5070081;28;20052;-78
2023/04/30 09:48:43;;;;;;;;;;;15.60;99.90;;;;;;5066000;28;19928;-77
2023/04/30 09:51:09;;;;;;;;;;;15.70;99.90;;;;;;5071247;28;20393;-76
2023/04/30 09:53:37;;;;;;;;;;;15.80;99.90;;;;;;5054059;28;19936;-76
2023/04/30 09:56:07;;;;;;;;;;;16.10;99.90;;;;;;5054469;28;20756;-76
2023/04/30 09:58:37;;;;;;;;;;;16.40;99.90;;;;;;5058673;28;19929;-76
2023/04/30 10:01:05;;;;;;;;;;;17.20;99.90;;;;;;5054203;28;19932;-76
2023/04/30 10:03:32;;;;;;;;;;;16.20;99.90;;;;;;5055629;28;20440;-76
2023/04/30 10:05:58;;;;;;;;;;;17.30;99.90;;;;;;5043484;28;19928;-75
2023/04/30 10:08:29;;;;;;;;;;;17.80;99.90;;;;;;5047889;28;20373;-76
2023/04/30 10:10:58;;;;;;;;;;;17.20;99.90;;;;;;5053544;28;20418;-76
2023/04/30 10:13:25;;;;;;;;;;;16.00;99.90;;;;;;5062932;28;20019;-77
2023/04/30 10:15:52;;;;;;;;;;;16.90;99.90;;;;;;5073783;28;19932;-77
2023/04/30 10:18:25;;;;;;;;;;;16.60;99.90;;;;;;5069373;28;20337;-78
2023/04/30 10:20:52;;;;;;;;;;;15.70;99.90;;;;;;5070640;28;19998;-79
2023/04/30 10:23:18;;;;;;;;;;;16.00;99.90;;;;;;5072980;28;19932;-77
2023/04/30 10:25:44;;;;;;;;;;;15.80;99.90;;;;;;5072386;28;20580;-77
2023/04/30 10:28:10;;;;;;;;;;;15.00;99.90;;;;;;5073442;28;19980;-77
2023/04/30 10:30:36;;;;;;;;;;;16.30;99.90;;;;;;5069212;28;19924;-77
2023/04/30 10:33:16;;;;;;;;;;;15.70;99.90;;;;;;5052130;28;19932;-77
2023/04/30 10:35:47;;;;;;;;;;;16.50;99.90;;;;;;5068859;28;19940;-76
2023/04/30 10:38:20;;;;;;;;;;;15.10;99.90;;;;;;5070141;28;19928;-77
2023/04/30 10:40:46;;;;;;;;;;;14.60;99.90;;;;;;5072890;28;20015;-76
2023/04/30 10:43:12;;;;;;;;;;;15.90;99.90;;;;;;5057169;28;19924;-76
2023/04/30 10:45:41;;;;;;;;;;;16.20;99.90;;;;;;5070796;28;19935;-76
2023/04/30 10:48:06;;;;;;;;;;;17.40;99.90;;;;;;5071426;28;19989;-76
2023/04/30 10:50:38;;;;;;;;;;;17.20;99.90;;;;;;5075456;28;20660;-77
2023/04/30 10:53:05;;;;;;;;;;;17.10;99.90;;;;;;5069829;28;20232;-76
2023/04/30 10:55:30;;;;;;;;;;;15.50;99.90;;;;;;5070367;28;20443;-77
2023/04/30 10:57:59;;;;;;;;;;;16.20;99.90;;;;;;5069217;28;19928;-76
2023/04/30 11:00:26;;;;;;;;;;;15.80;99.90;;;;;;5075805;28;19931;-77
2023/04/30 11:02:56;;;;;;;;;;;15.10;99.90;;;;;;5073139;28;19960;-76
2023/04/30 11:05:32;;;;;;;;;;;16.60;99.90;;;;;;5071050;28;20015;-76
2023/04/30 11:07:58;;;;;;;;;;;16.30;99.90;;;;;;5073303;28;19928;-76
2023/04/30 11:10:33;;;;;;;;;;;16.00;99.90;;;;;;5078432;28;20305;-76
2023/04/30 11:13:02;;;;;;;;;;;17.00;99.90;;;;;;5055824;28;20397;-76
2023/04/30 11:15:47;;;;;;;;;;;16.90;99.90;;;;;;5069607;28;19958;-76
2023/04/30 11:18:12;;;;;;;;;;;17.20;99.90;;;;;;5053447;28;19932;-77
2023/04/30 11:20:39;;;;;;;;;;;16.50;99.90;;;;;;5072189;28;20034;-76
2023/04/30 11:23:08;;;;;;;;;;;16.40;99.90;;;;;;5077194;28;19935;-76
2023/04/30 11:25:40;;;;;;;;;;;16.20;99.90;;;;;;5077296;28;19956;-76
2023/04/30 11:28:06;;;;;;;;;;;16.40;99.90;;;;;;5070789;28;19928;-76
2023/04/30 11:30:32;;;;;;;;;;;17.10;99.90;;;;;;5075281;28;19925;-76
2023/04/30 11:32:58;;;;;;;;;;;17.40;99.90;;;;;;5074065;28;20019;-75
2023/04/30 11:35:24;;;;;;;;;;;15.70;99.90;;;;;;5073576;28;19928;-76
2023/04/30 11:37:53;;;;;;;;;;;16.60;99.90;;;;;;5071563;28;19932;-76
2023/04/30 11:40:19;;;;;;;;;;;17.10;99.90;;;;;;5074838;28;20014;-76
2023/04/30 11:42:47;;;;;;;;;;;16.80;99.90;;;;;;5072288;28;20476;-77
2023/04/30 11:45:16;;;;;;;;;;;17.60;99.90;;;;;;5077303;28;19928;-76
2023/04/30 11:47:45;;;;;;;;;;;17.10;99.90;;;;;;5071049;28;20297;-76
2023/04/30 11:50:12;;;;;;;;;;;17.00;99.90;;;;;;5074393;28;19936;-76
2023/04/30 11:52:38;;;;;;;;;;;17.40;99.90;;;;;;5074477;28;20379;-75
2023/04/30 11:55:04;;;;;;;;;;;17.90;99.90;;;;;;5074734;28;19931;-77
2023/04/30 11:57:34;;;;;;;;;;;17.10;99.90;;;;;;5061630;28;19943;-76
2023/04/30 12:00:06;;;;;;;;;;;16.80;99.90;;;;;;5051909;28;20365;-76
2023/04/30 12:02:32;;;;;;;;;;;16.60;99.90;;;;;;5063760;28;19928;-77
2023/04/30 12:04:57;;;;;;;;;;;16.70;99.90;;;;;;5077345;28;19928;-76
2023/04/30 12:07:23;;;;;;;;;;;16.90;99.90;;;;;;5072534;28;20128;-76
2023/04/30 12:09:53;;;;;;;;;;;17.60;99.90;;;;;;5068812;28;19955;-76
2023/04/30 12:12:28;;;;;;;;;;;16.70;99.90;;;;;;5074911;28;20345;-76
2023/04/30 12:14:54;;;;;;;;;;;16.80;99.90;;;;;;5064489;28;19935;-76
2023/04/30 12:17:32;;;;;;;;;;;18.00;99.90;;;;;;5077422;28;19932;-76
2023/04/30 12:19:57;;;;;;;;;;;17.30;99.90;;;;;;5075393;28;19931;-76
2023/04/30 12:22:23;;;;;;;;;;;16.70;99.90;;;;;;5079225;28;19957;-77
2023/04/30 12:24:48;;;;;;;;;;;17.10;99.90;;;;;;5077616;28;19932;-77
2023/04/30 12:27:14;;;;;;;;;;;16.70;99.90;;;;;;5078765;28;19980;-77
2023/04/30 12:29:43;;;;;;;;;;;17.20;99.90;;;;;;5078658;28;19931;-77
2023/04/30 12:32:08;;;;;;;;;;;17.20;99.90;;;;;;5076601;28;19928;-76
2023/04/30 12:34:36;;;;;;;;;;;18.40;99.90;;;;;;5076393;28;19928;-76
2023/04/30 12:37:02;;;;;;;;;;;17.30;99.90;;;;;;5081189;28;20335;-76
2023/04/30 12:39:31;;;;;;;;;;;16.80;99.90;;;;;;5076895;28;19932;-77
2023/04/30 12:41:58;;;;;;;;;;;16.80;99.90;;;;;;5073308;28;19925;-76
2023/04/30 12:44:25;;;;;;;;;;;16.80;99.90;;;;;;5059600;28;19935;-76
2023/04/30 12:46:56;;;;;;;;;;;17.40;99.90;;;;;;5072173;28;19943;-77
2023/04/30 12:49:48;;;;;;;;;;;17.10;99.90;;;;;;5063445;28;19939;-77
2023/04/30 12:52:14;;;;;;;;;;;17.30;99.90;;;;;;5074024;28;19932;-76
2023/04/30 12:54:40;;;;;;;;;;;17.40;99.90;;;;;;5072265;28;19932;-76
2023/04/30 12:57:07;;;;;;;;;;;17.70;99.90;;;;;;5077252;28;19935;-76
2023/04/30 12:59:54;;;;;;;;;;;17.50;99.90;;;;;;5080465;28;19928;-77
2023/04/30 13:02:23;;;;;;;;;;;17.30;99.90;;;;;;5074304;28;19928;-76
2023/04/30 13:04:49;;;;;;;;;;;16.90;99.90;;;;;;5072877;28;19993;-77
2023/04/30 13:07:15;;;;;;;;;;;17.40;99.90;;;;;;5078472;28;19971;-77
2023/04/30 13:09:41;;;;;;;;;;;17.20;99.90;;;;;;5078465;28;19986;-76
2023/04/30 13:12:06;;;;;;;;;;;17.60;99.90;;;;;;5078015;28;19935;-76
2023/04/30 13:14:32;;;;;;;;;;;17.60;99.90;;;;;;5074900;28;19928;-77
2023/04/30 13:16:58;;;;;;;;;;;17.70;99.90;;;;;;5077687;28;19928;-77
2023/04/30 13:19:24;;;;;;;;;;;17.60;99.90;;;;;;5081108;28;19924;-77
2023/04/30 13:21:49;;;;;;;;;;;17.40;99.90;;;;;;5072512;28;19928;-77
2023/04/30 13:24:17;;;;;;;;;;;17.30;99.90;;;;;;5072550;28;19932;-76
2023/04/30 13:26:43;;;;;;;;;;;17.10;99.90;;;;;;5072795;28;20529;-76
2023/04/30 13:29:08;;;;;;;;;;;17.90;99.90;;;;;;5074950;28;19932;-76
2023/04/30 13:31:35;;;;;;;;;;;18.30;99.90;;;;;;5071509;28;20031;-77
2023/04/30 13:34:00;;;;;;;;;;;18.90;99.90;;;;;;5075579;28;19928;-76
2023/04/30 13:36:26;;;;;;;;;;;17.30;99.90;;;;;;5080369;28;19928;-77
2023/04/30 13:38:52;;;;;;;;;;;17.40;99.90;;;;;;5077402;28;19963;-77
2023/04/30 13:41:19;;;;;;;;;;;17.80;99.90;;;;;;5069563;28;20278;-76
2023/04/30 13:43:46;;;;;;;;;;;16.80;99.90;;;;;;5077378;28;19929;-77
2023/04/30 13:46:12;;;;;;;;;;;17.40;99.90;;;;;;5072793;28;20066;-76
2023/04/30 13:48:37;;;;;;;;;;;17.30;99.90;;;;;;5075249;28;19928;-76
2023/04/30 13:51:03;;;;;;;;;;;18.40;99.90;;;;;;5075079;28;19956;-75
2023/04/30 13:53:29;;;;;;;;;;;19.10;99.90;;;;;;5077080;28;19968;-75
2023/04/30 13:55:54;;;;;;;;;;;19.00;99.90;;;;;;5080359;28;19924;-76
2023/04/30 13:58:20;;;;;;;;;;;19.20;99.90;;;;;;5074891;28;19962;-75
2023/04/30 14:00:46;;;;;;;;;;;19.30;99.90;;;;;;5073413;28;19989;-76
2023/04/30 14:03:12;;;;;;;;;;;20.10;99.90;;;;;;5077074;28;19981;-76
2023/04/30 14:05:39;;;;;;;;;;;19.00;99.90;;;;;;5072250;28;19939;-76
2023/04/30 14:08:07;;;;;;;;;;;18.10;99.90;;;;;;5072136;28;21945;-76
2023/04/30 14:10:32;;;;;;;;;;;18.50;99.90;;;;;;5074338;28;19978;-76
2023/04/30 14:12:58;;;;;;;;;;;18.60;99.90;;;;;;5071251;28;19928;-76
2023/04/30 14:15:23;;;;;;;;;;;18.50;99.90;;;;;;5073016;28;19981;-76
2023/04/30 14:17:49;;;;;;;;;;;18.00;99.90;;;;;;5078077;28;19938;-77
2023/04/30 14:20:15;;;;;;;;;;;17.60;99.90;;;;;;5074583;28;20534;-74
2023/04/30 14:22:40;;;;;;;;;;;17.50;99.90;;;;;;5072074;28;19928;-77